Fatezh, Russia
Current Conditions -  °F | °C
As of 9:00 AM on Wednesday 22 Oct 2014 (Local Time) from UUOK Reporting Station
Overcast Overcast  
Wind Chill: 27°   Ceiling: 1000
Heat Index: 36°   Visibility: 6mi
Dew Point: 30°   Wind: 13mph
Humidity: 81%   Direction: 360°N
Pressure: 29.8"   Gusts: NA
Location:  52.09°N, 35.86°E
Report Text: UUOK 220600Z 36006MPS 9999 OVC010 02/M01 Q1009 NOSIG RMK30110060
Loading
Personal Weather Stations






























Interactive Weather Map
Tropical Storm Tracking
New forecast layout! Learn more

10-Day Weather Forecast

Advertisements
Track Severe Weather on mobile